Time;durP1;ratioP1;P1;durP2;ratioP2;P2;SDS_P1;SDS_P2;PMS_P1;PMS_P2;Temp;Humidity;BMP_temperature;BMP_pressure;BME280_temperature;BME280_humidity;BME280_pressure;Samples;Min_cycle;Max_cycle;Signal;HPM_P1;HPM_P2
2022/01/23 00:02:21;;;;;;;;;48.50;33.25;;;;;7.27;64.62;103468.13;5132323;27;49751;-59
2022/01/23 00:04:46;;;;;;;;;42.75;38.25;;;;;7.15;64.30;103450.72;5132605;27;49811;-59
2022/01/23 00:07:14;;;;;;;;;47.50;41.00;;;;;7.28;64.55;103473.47;5132914;27;49714;-60
2022/01/23 00:09:40;;;;;;;;;40.75;36.00;;;;;7.24;64.59;103462.63;5132442;27;50608;-60
2022/01/23 00:12:12;;;;;;;;;50.75;40.00;;;;;7.31;64.42;103473.69;5131818;27;49689;-59
2022/01/23 00:17:23;;;;;;;;;36.75;32.50;;;;;7.28;64.28;103472.56;5132806;27;49980;-60
2022/01/23 00:19:56;;;;;;;;;45.00;36.75;;;;;7.26;64.42;103467.22;5131995;27;50659;-64
2022/01/23 00:22:28;;;;;;;;;46.00;40.00;;;;;7.14;64.43;103451.50;5132386;27;49726;-62
2022/01/23 00:32:58;;;;;;;;;33.00;30.50;;;;;7.05;64.78;103449.88;5132321;27;49740;-59
2022/01/23 00:35:24;;;;;;;;;37.25;34.25;;;;;6.99;64.42;103454.63;5132903;27;49835;-60
2022/01/23 00:37:50;;;;;;;;;44.50;36.75;;;;;6.72;64.52;103417.72;5132208;27;49789;-59
2022/01/23 00:40:16;;;;;;;;;38.00;31.50;;;;;6.95;64.33;103453.47;5131906;27;50763;-59
2022/01/23 00:42:41;;;;;;;;;34.00;24.00;;;;;6.87;64.60;103437.22;5132017;27;49820;-60
2022/01/23 00:47:34;;;;;;;;;39.25;34.75;;;;;6.92;64.50;103439.25;5132304;27;50105;-60
2022/01/23 00:49:59;;;;;;;;;35.75;29.50;;;;;6.80;64.92;103414.00;5131878;27;49776;-58
2022/01/23 00:52:25;;;;;;;;;30.25;26.50;;;;;7.02;63.97;103452.25;5132665;27;50079;-59
2022/01/23 00:54:50;;;;;;;;;41.25;32.75;;;;;6.95;64.50;103431.66;5131846;27;49671;-59
2022/01/23 00:57:16;;;;;;;;;36.25;31.00;;;;;6.97;64.08;103432.72;5131743;27;50101;-60
2022/01/23 00:59:41;;;;;;;;;36.25;29.25;;;;;6.92;64.28;103421.88;5130765;27;50974;-59
2022/01/23 01:02:07;;;;;;;;;26.75;24.25;;;;;6.95;64.80;103424.75;5131801;27;49976;-59
2022/01/23 01:04:32;;;;;;;;;42.00;38.25;;;;;7.05;64.32;103439.44;5131685;27;50334;-63
2022/01/23 01:06:57;;;;;;;;;45.75;37.75;;;;;7.00;64.45;103418.16;5131958;27;49786;-59
2022/01/23 01:09:23;;;;;;;;;43.75;39.25;;;;;7.05;64.71;103432.50;5131538;27;49648;-59
2022/01/23 01:14:32;;;;;;;;;39.75;35.00;;;;;7.06;64.48;103433.41;5131267;27;49771;-60
2022/01/23 01:17:07;;;;;;;;;50.00;41.75;;;;;6.87;64.65;103413.72;5132010;27;49843;-62
2022/01/23 01:30:43;;;;;;;;;43.25;35.50;;;;;6.94;63.91;103430.75;5131189;27;50150;-63
2022/01/23 01:33:19;;;;;;;;;40.00;33.25;;;;;6.72;63.84;103386.38;5131344;27;49703;-62
2022/01/23 01:38:12;;;;;;;;;39.00;33.25;;;;;7.02;64.26;103437.47;5131334;27;49667;-60
2022/01/23 01:40:38;;;;;;;;;36.25;35.50;;;;;6.98;63.90;103424.97;5131089;27;50554;-62
2022/01/23 01:43:04;;;;;;;;;42.50;32.00;;;;;6.97;64.41;103414.44;5130820;27;49835;-64
2022/01/23 01:45:31;;;;;;;;;36.25;32.75;;;;;7.05;64.26;103436.81;5131309;27;49854;-69
2022/01/23 01:48:00;;;;;;;;;44.25;36.25;;;;;6.96;64.56;103434.41;5131280;27;49687;-65
2022/01/23 01:50:27;;;;;;;;;37.50;34.75;;;;;6.93;64.45;103414.97;5131163;27;49720;-65
2022/01/23 01:52:53;;;;;;;;;37.25;34.50;;;;;6.88;64.58;103398.94;5131049;27;50026;-64
2022/01/23 01:55:25;;;;;;;;;39.75;38.00;;;;;7.01;64.59;103433.03;5131097;27;49679;-63
2022/01/23 01:57:55;;;;;;;;;41.50;38.75;;;;;7.00;64.52;103415.56;5130340;27;50082;-60
2022/01/23 02:10:47;;;;;;;;;44.25;36.75;;;;;6.71;65.17;103407.16;5130948;27;49821;-62
2022/01/23 02:13:16;;;;;;;;;46.25;40.75;;;;;6.79;65.09;103427.84;5134311;27;49741;-60
2022/01/23 02:23:55;;;;;;;;;39.25;36.75;;;;;6.88;65.27;103417.22;5134367;27;49665;-60
2022/01/23 02:50:54;;;;;;;;;33.25;25.50;;;;;6.78;65.15;103372.91;5134350;27;49679;-60
2022/01/23 02:56:15;;;;;;;;;26.50;26.00;;;;;6.79;64.71;103386.09;5133745;27;49727;-59
2022/01/23 02:58:55;;;;;;;;;32.25;26.25;;;;;6.75;64.81;103373.56;5133699;27;49878;-59
2022/01/23 03:01:21;;;;;;;;;37.75;32.50;;;;;6.82;64.88;103375.88;5134154;27;49822;-60
2022/01/23 03:03:50;;;;;;;;;35.75;32.50;;;;;6.74;65.13;103360.41;5120676;27;49834;-60
2022/01/23 03:06:49;;;;;;;;;36.50;31.75;;;;;6.71;65.53;103352.34;5113506;27;49678;-60
2022/01/23 03:12:02;;;;;;;;;34.50;29.25;;;;;6.70;64.96;103356.66;5113917;27;49645;-60
2022/01/23 03:30:25;;;;;;;;;33.75;32.25;;;;;6.60;65.20;103354.13;5133430;27;49879;-65
2022/01/23 03:32:52;;;;;;;;;33.25;27.00;;;;;6.21;65.42;103273.63;5133544;27;49714;-66
2022/01/23 03:35:19;;;;;;;;;34.50;29.50;;;;;6.71;65.38;103355.84;5133066;27;50681;-59
2022/01/23 03:37:46;;;;;;;;;37.25;33.50;;;;;6.71;65.60;103366.28;5133094;27;49891;-61
2022/01/23 03:40:11;;;;;;;;;27.75;23.50;;;;;6.73;65.97;103369.94;5133055;27;50110;-67
2022/01/23 03:42:40;;;;;;;;;40.75;37.75;;;;;6.63;65.60;103353.44;5133300;27;49563;-63
2022/01/23 03:49:30;;;;;;;;;43.50;36.50;;;;;6.67;65.57;103358.13;5079828;27;50040;-60
2022/01/23 03:50:42;;;;;;;;;29.50;27.25;;;;;6.70;65.60;103359.25;5133030;27;49810;-60
2022/01/23 03:53:07;;;;;;;;;28.50;26.75;;;;;6.71;65.12;103361.06;5133294;27;49714;-59
2022/01/23 03:55:34;;;;;;;;;26.50;21.75;;;;;6.63;65.33;103338.69;5132645;27;50395;-60
2022/01/23 03:58:00;;;;;;;;;34.50;25.50;;;;;6.68;65.75;103342.56;5132502;27;49634;-59
2022/01/23 04:00:25;;;;;;;;;32.25;29.75;;;;;6.64;65.25;103335.28;5094721;27;49717;-61
2022/01/23 04:02:51;;;;;;;;;37.50;31.50;;;;;6.73;65.15;103355.97;5110731;27;49695;-60
2022/01/23 04:05:16;;;;;;;;;24.25;23.75;;;;;6.26;65.06;103282.72;5131474;27;50485;-61
2022/01/23 04:07:42;;;;;;;;;29.00;26.00;;;;;6.55;65.19;103330.25;5132561;27;49865;-60
2022/01/23 04:10:11;;;;;;;;;30.75;22.00;;;;;6.66;65.58;103345.84;5132769;27;49745;-59
2022/01/23 04:15:15;;;;;;;;;25.00;21.75;;;;;6.57;65.73;103346.06;5131978;27;49775;-59
2022/01/23 04:33:57;;;;;;;;;26.50;25.75;;;;;6.45;65.17;103348.59;5132382;27;49828;-62
2022/01/23 05:01:06;;;;;;;;;27.75;26.25;;;;;6.49;66.07;103355.88;5131937;27;49783;-60
2022/01/23 05:06:06;;;;;;;;;27.50;24.75;;;;;6.45;66.49;103334.63;5131917;27;49847;-58
2022/01/23 05:08:35;;;;;;;;;32.50;30.75;;;;;6.44;66.04;103338.94;5131541;27;50831;-60
2022/01/23 05:11:02;;;;;;;;;24.50;24.00;;;;;6.34;66.03;103330.28;5094163;27;49668;-62
2022/01/23 05:13:28;;;;;;;;;25.75;23.50;;;;;6.42;65.77;103350.97;5130488;27;49824;-59
2022/01/23 05:15:54;;;;;;;;;27.50;26.75;;;;;6.39;66.57;103340.31;5095040;27;49950;-61
2022/01/23 05:18:20;;;;;;;;;26.25;26.25;;;;;6.27;66.52;103328.88;5129833;27;51621;-60
2022/01/23 05:20:47;;;;;;;;;39.50;32.50;;;;;6.29;65.95;103346.50;5131455;27;49915;-64
2022/01/23 05:23:13;;;;;;;;;34.50;29.50;;;;;6.20;66.30;103348.38;5095658;27;50016;-60
2022/01/23 05:25:39;;;;;;;;;27.25;24.00;;;;;6.24;65.87;103358.25;5128940;27;49766;-60
2022/01/23 05:28:07;;;;;;;;;28.50;22.75;;;;;6.09;65.93;103330.06;5131040;27;50689;-60
2022/01/23 05:30:33;;;;;;;;;38.75;30.50;;;;;6.16;65.56;103342.78;5131377;27;49644;-60
2022/01/23 05:33:00;;;;;;;;;34.25;29.50;;;;;5.74;65.88;103273.34;5131750;27;50006;-60
2022/01/23 05:35:28;;;;;;;;;30.50;26.50;;;;;6.23;66.17;103369.47;5099486;27;50117;-60
2022/01/23 05:37:53;;;;;;;;;38.75;31.25;;;;;6.24;65.95;103359.94;5130985;27;50159;-62
2022/01/23 05:40:20;;;;;;;;;30.75;23.50;;;;;6.22;65.71;103354.63;5131035;27;49691;-61
2022/01/23 05:42:46;;;;;;;;;41.00;28.50;;;;;6.14;65.68;103334.81;5131049;27;49905;-59
2022/01/23 05:45:12;;;;;;;;;31.75;30.50;;;;;6.25;65.89;103356.53;5131537;27;49639;-65
2022/01/23 05:47:37;;;;;;;;;34.25;29.25;;;;;5.80;65.81;103280.75;5133457;27;49958;-61
2022/01/23 05:50:04;;;;;;;;;37.25;33.50;;;;;6.27;65.92;103352.34;5134886;27;49694;-59
2022/01/23 05:52:31;;;;;;;;;35.25;27.50;;;;;6.16;66.07;103342.78;5134817;27;49845;-61
2022/01/23 05:54:57;;;;;;;;;30.75;26.75;;;;;6.13;66.09;103347.75;5134982;27;49693;-59
2022/01/23 05:57:22;;;;;;;;;36.25;31.75;;;;;6.12;66.21;103353.75;5134520;27;50993;-65
2022/01/23 05:59:50;;;;;;;;;35.25;31.00;;;;;6.05;66.50;103341.00;5134387;27;49820;-59
2022/01/23 06:02:15;;;;;;;;;40.00;32.25;;;;;5.98;66.67;103342.19;5134805;27;49563;-62
2022/01/23 06:04:41;;;;;;;;;40.75;34.25;;;;;6.10;66.28;103366.69;5134858;27;49812;-62
2022/01/23 06:07:06;;;;;;;;;32.25;30.00;;;;;6.04;66.42;103350.53;5134296;27;49727;-59
2022/01/23 06:09:32;;;;;;;;;32.75;26.25;;;;;6.11;66.31;103372.81;5127962;27;49811;-60
2022/01/23 06:11:57;;;;;;;;;31.25;30.25;;;;;6.00;66.37;103349.38;5134590;27;49595;-60
2022/01/23 06:14:23;;;;;;;;;34.00;26.75;;;;;6.07;66.40;103358.59;5134506;27;50460;-59
2022/01/23 06:16:49;;;;;;;;;34.75;27.50;;;;;6.16;66.20;103368.84;5115698;27;51465;-59
2022/01/23 06:19:14;;;;;;;;;35.25;26.50;;;;;6.15;66.42;103361.81;5134178;27;49675;-59
2022/01/23 06:21:40;;;;;;;;;35.25;31.50;;;;;6.11;66.00;103357.16;5134535;27;49650;-59
2022/01/23 06:26:43;;;;;;;;;27.50;25.00;;;;;6.09;66.23;103370.09;5134232;27;49843;-59
2022/01/23 06:29:10;;;;;;;;;33.50;25.25;;;;;5.97;66.58;103348.22;5134145;27;49710;-59
2022/01/23 06:31:38;;;;;;;;;37.25;26.00;;;;;5.99;66.37;103351.88;5134232;27;49870;-58
2022/01/23 06:34:05;;;;;;;;;35.50;29.25;;;;;6.05;66.32;103354.97;5134613;27;49857;-59
2022/01/23 06:36:31;;;;;;;;;31.25;23.25;;;;;5.99;66.61;103339.75;5134128;27;49831;-61
2022/01/23 06:38:56;;;;;;;;;22.25;19.50;;;;;6.13;66.50;103361.69;5134348;27;49863;-60
2022/01/23 06:41:22;;;;;;;;;29.75;24.25;;;;;6.16;66.35;103361.03;5134109;27;49746;-63
2022/01/23 06:43:47;;;;;;;;;24.25;20.50;;;;;5.65;66.23;103280.41;5134069;27;49757;-64
2022/01/23 06:46:12;;;;;;;;;27.50;25.50;;;;;6.14;65.66;103357.41;5134158;27;49881;-61
2022/01/23 06:48:38;;;;;;;;;26.25;22.75;;;;;6.14;65.68;103362.59;5134055;27;49824;-67
2022/01/23 06:51:03;;;;;;;;;29.50;26.25;;;;;6.14;65.48;103347.88;5134032;27;49665;-61
2022/01/23 06:53:29;;;;;;;;;21.00;17.75;;;;;6.16;65.15;103356.72;5134604;27;49892;-63
2022/01/23 06:55:54;;;;;;;;;23.25;23.25;;;;;6.15;65.02;103359.22;5133615;27;49907;-64
2022/01/23 06:58:19;;;;;;;;;25.00;23.00;;;;;6.14;65.37;103365.22;5132567;27;49721;-61
2022/01/23 07:00:45;;;;;;;;;26.00;19.00;;;;;6.13;64.79;103386.88;5130562;27;49730;-59
2022/01/23 07:03:12;;;;;;;;;23.00;21.00;;;;;6.03;65.08;103380.00;5127825;27;49809;-65
2022/01/23 07:05:37;;;;;;;;;22.50;17.25;;;;;5.91;65.21;103359.06;5121329;27;50800;-69
2022/01/23 07:08:03;;;;;;;;;23.50;20.00;;;;;5.95;65.37;103365.44;5120599;27;49835;-60
2022/01/23 07:10:29;;;;;;;;;24.50;20.25;;;;;6.02;65.25;103371.28;5119094;27;50035;-64
2022/01/23 07:12:54;;;;;;;;;28.50;23.00;;;;;6.07;65.52;103375.94;5119282;27;49707;-64
2022/01/23 07:15:19;;;;;;;;;22.00;20.50;;;;;6.03;65.54;103378.31;5104216;27;51152;-61
2022/01/23 07:17:45;;;;;;;;;17.75;11.25;;;;;6.05;64.92;103386.25;5122345;27;49747;-61
2022/01/23 07:20:10;;;;;;;;;14.25;12.50;;;;;5.98;65.33;103379.66;5125770;27;49823;-62
2022/01/23 07:22:36;;;;;;;;;24.75;18.00;;;;;5.98;65.74;103391.75;5123130;27;49864;-65
2022/01/23 07:25:05;;;;;;;;;25.50;18.75;;;;;5.95;65.80;103394.13;5125329;27;49732;-64
2022/01/23 07:27:38;;;;;;;;;19.00;18.50;;;;;5.95;65.83;103379.38;5114837;27;49731;-67
2022/01/23 07:30:20;;;;;;;;;23.75;18.00;;;;;5.95;66.47;103371.56;5117257;27;49933;-61
2022/01/23 07:32:46;;;;;;;;;27.75;22.00;;;;;5.74;66.27;103347.22;5116965;27;50028;-62
2022/01/23 07:35:11;;;;;;;;;22.25;21.25;;;;;5.96;66.78;103380.28;5113136;27;54084;-68
2022/01/23 07:37:36;;;;;;;;;26.25;23.25;;;;;5.92;66.42;103378.22;5115351;27;49702;-68
2022/01/23 07:40:02;;;;;;;;;28.25;25.00;;;;;5.88;66.52;103357.84;5123805;27;49900;-72
2022/01/23 07:42:27;;;;;;;;;27.75;20.75;;;;;5.89;66.26;103362.31;5127471;27;49757;-60
2022/01/23 07:44:53;;;;;;;;;22.50;20.00;;;;;5.96;66.68;103380.28;5125208;27;51978;-60
2022/01/23 07:47:22;;;;;;;;;28.00;22.50;;;;;5.83;66.43;103356.59;5124426;27;49929;-60
2022/01/23 07:49:49;;;;;;;;;21.75;18.25;;;;;5.85;66.03;103352.41;5100973;27;49895;-59
2022/01/23 07:52:15;;;;;;;;;24.00;21.75;;;;;5.96;66.40;103369.84;5126564;27;49634;-59
2022/01/23 07:54:41;;;;;;;;;17.50;17.50;;;;;5.90;66.54;103353.72;5125657;27;51054;-60
2022/01/23 07:57:06;;;;;;;;;25.00;22.00;;;;;5.93;66.44;103365.31;5127985;27;50622;-61
2022/01/23 07:59:34;;;;;;;;;21.00;20.00;;;;;5.81;65.65;103351.25;5125558;27;50045;-68
2022/01/23 08:02:00;;;;;;;;;19.50;16.50;;;;;5.91;65.75;103386.84;5125018;27;50573;-62
2022/01/23 08:04:25;;;;;;;;;17.75;15.00;;;;;5.81;66.07;103386.84;5134635;27;50157;-61
2022/01/23 08:07:06;;;;;;;;;24.50;22.25;;;;;5.72;65.76;103380.09;5119024;27;50092;-60
2022/01/23 08:09:35;;;;;;;;;18.25;17.75;;;;;5.70;65.94;103372.94;5119249;27;49865;-62
2022/01/23 08:12:00;;;;;;;;;19.50;13.50;;;;;5.13;65.71;103281.38;5117771;27;50005;-59
2022/01/23 08:14:26;;;;;;;;;14.50;13.75;;;;;5.80;65.57;103408.50;5125275;27;49782;-62
2022/01/23 08:16:51;;;;;;;;;18.00;17.50;;;;;5.80;66.16;103406.78;5126409;27;50049;-60
2022/01/23 08:19:16;;;;;;;;;25.25;21.00;;;;;5.58;65.98;103378.03;5114711;27;49876;-60
2022/01/23 08:21:42;;;;;;;;;16.75;14.00;;;;;5.75;66.00;103415.91;5127279;27;50040;-59
2022/01/23 08:24:07;;;;;;;;;21.25;14.50;;;;;5.74;66.10;103398.47;5113995;27;49600;-60
2022/01/23 08:26:33;;;;;;;;;18.50;17.25;;;;;5.74;66.16;103388.03;5125540;27;49840;-62
2022/01/23 08:28:58;;;;;;;;;19.25;18.25;;;;;5.80;65.92;103409.41;5116254;27;49665;-60
2022/01/23 08:31:23;;;;;;;;;24.50;19.25;;;;;5.77;66.05;103385.66;5121853;27;49904;-70
2022/01/23 08:33:49;;;;;;;;;19.25;17.50;;;;;5.88;65.96;103418.72;5098810;27;51367;-60
2022/01/23 08:36:15;;;;;;;;;27.25;22.50;;;;;5.87;66.18;103424.72;5119821;27;49740;-60
2022/01/23 08:38:41;;;;;;;;;21.75;21.00;;;;;5.79;66.38;103404.03;5112500;27;49665;-60
2022/01/23 08:43:44;;;;;;;;;18.50;15.50;;;;;5.85;66.02;103402.84;5124954;27;50297;-60
2022/01/23 08:46:10;;;;;;;;;19.25;19.00;;;;;5.95;65.74;103417.59;5115854;27;49870;-60
2022/01/23 08:48:35;;;;;;;;;26.50;21.00;;;;;5.98;66.12;103420.44;5124383;27;49710;-61
2022/01/23 08:51:01;;;;;;;;;28.00;22.25;;;;;5.95;65.71;103402.84;5110879;27;49770;-60
2022/01/23 08:53:26;;;;;;;;;20.50;20.00;;;;;5.94;65.61;103392.28;5119491;27;49774;-61
2022/01/23 08:55:52;;;;;;;;;22.25;21.00;;;;;6.08;65.57;103415.22;5111300;27;49914;-60
2022/01/23 08:58:17;;;;;;;;;26.25;23.00;;;;;5.91;65.54;103384.25;5091772;27;49893;-61
2022/01/23 09:00:43;;;;;;;;;22.75;20.50;;;;;6.06;65.16;103411.53;5112006;27;49655;-61
2022/01/23 09:03:08;;;;;;;;;24.00;20.25;;;;;5.98;64.98;103418.75;5111685;27;49765;-61
2022/01/23 09:05:33;;;;;;;;;23.00;21.00;;;;;5.91;65.31;103403.41;5112075;27;49854;-60
2022/01/23 09:07:59;;;;;;;;;34.00;30.00;;;;;6.01;65.06;103405.97;5111856;27;49778;-61
2022/01/23 09:10:27;;;;;;;;;25.50;23.00;;;;;6.14;65.36;103417.38;5104029;27;49876;-60
2022/01/23 09:13:11;;;;;;;;;27.00;21.00;;;;;6.06;65.28;103413.22;5111455;27;50088;-66
2022/01/23 09:15:37;;;;;;;;;33.25;23.50;;;;;6.01;65.11;103405.06;5111753;27;49692;-60
2022/01/23 09:18:03;;;;;;;;;23.25;23.25;;;;;6.11;64.80;103430.19;5112158;27;50460;-60
2022/01/23 09:20:29;;;;;;;;;26.00;22.50;;;;;6.07;65.11;103421.19;5111507;27;49822;-60
2022/01/23 09:22:55;;;;;;;;;25.50;23.00;;;;;5.95;65.14;103399.31;5111247;27;50519;-71
2022/01/23 09:25:20;;;;;;;;;32.50;28.50;;;;;5.88;64.60;103400.47;5106869;27;49724;-69
2022/01/23 09:27:46;;;;;;;;;29.50;27.75;;;;;6.06;64.72;103416.75;5112249;27;49755;-67
2022/01/23 09:30:19;;;;;;;;;25.75;25.25;;;;;6.03;64.11;103411.31;5126122;27;50027;-69
2022/01/23 09:32:47;;;;;;;;;17.75;14.75;;;;;5.97;64.47;103408.19;5112989;27;51533;-68
2022/01/23 09:35:13;;;;;;;;;29.25;26.00;;;;;5.99;64.77;103415.38;5131421;27;49701;-67
2022/01/23 09:37:38;;;;;;;;;28.25;23.75;;;;;5.92;64.97;103417.34;5131526;27;50165;-66
2022/01/23 09:40:05;;;;;;;;;24.00;22.50;;;;;6.00;64.38;103429.31;5099285;27;49874;-72
2022/01/23 09:42:41;;;;;;;;;30.25;26.75;;;;;5.89;64.62;103414.47;5112531;27;50879;-76
2022/01/23 09:45:09;;;;;;;;;29.00;26.25;;;;;5.96;64.87;103422.00;5131823;27;49731;-73
2022/01/23 09:47:36;;;;;;;;;40.50;29.00;;;;;5.68;64.81;103354.53;5131884;27;49808;-75
2022/01/23 09:50:05;;;;;;;;;30.00;24.75;;;;;5.93;64.92;103412.25;5113407;27;50094;-72
2022/01/23 09:52:33;;;;;;;;;9.75;7.75;;;;;6.10;65.01;103431.88;5132478;27;50955;-73
2022/01/23 09:55:06;;;;;;;;;23.50;22.00;;;;;6.01;64.79;103421.59;5132623;27;49648;-71
2022/01/23 09:57:33;;;;;;;;;24.50;24.50;;;;;6.07;65.08;103409.84;5113116;27;49900;-70
2022/01/23 10:00:00;;;;;;;;;25.00;20.00;;;;;6.08;64.49;103415.22;5098049;27;49993;-70
2022/01/23 10:02:27;;;;;;;;;29.25;27.75;;;;;6.10;64.69;103424.06;5110986;27;50001;-67
2022/01/23 10:04:54;;;;;;;;;26.25;26.00;;;;;6.08;64.96;103429.91;5111224;27;49730;-59
2022/01/23 10:07:21;;;;;;;;;36.25;31.25;;;;;5.81;65.05;103382.53;5105084;27;49974;-77
2022/01/23 10:10:09;;;;;;;;;25.75;21.50;;;;;6.08;65.28;103424.69;5092960;27;49770;-74
2022/01/23 10:12:38;;;;;;;;;29.25;25.50;;;;;5.96;64.88;103406.38;5110740;27;50237;-62
2022/01/23 10:15:04;;;;;;;;;30.00;25.75;;;;;6.06;64.86;103421.97;5107499;27;49738;-65
2022/01/23 10:17:29;;;;;;;;;27.25;25.75;;;;;5.92;65.21;103399.09;5114387;27;49761;-62
2022/01/23 10:19:55;;;;;;;;;40.00;30.00;;;;;6.05;65.05;103441.00;5111362;27;49884;-66
2022/01/23 10:22:20;;;;;;;;;31.50;25.25;;;;;5.77;65.21;103384.75;5111226;27;50561;-68
2022/01/23 10:24:46;;;;;;;;;24.25;22.75;;;;;5.92;64.96;103420.84;5112132;27;50390;-77
2022/01/23 10:27:12;;;;;;;;;27.00;23.00;;;;;5.96;65.19;103432.44;5108546;27;49923;-67
2022/01/23 10:29:43;;;;;;;;;24.00;22.50;;;;;5.52;65.29;103345.38;5111270;27;50231;-68
2022/01/23 10:32:23;;;;;;;;;27.50;25.00;;;;;5.83;64.69;103404.44;5110782;27;50475;-67
2022/01/23 10:35:00;;;;;;;;;25.25;17.00;;;;;5.97;65.03;103426.44;5119187;27;49741;-66
2022/01/23 10:37:41;;;;;;;;;22.75;21.75;;;;;5.88;64.40;103416.13;5106646;27;49903;-70
2022/01/23 10:40:12;;;;;;;;;22.75;20.50;;;;;5.96;65.11;103437.66;5114979;27;50094;-68
2022/01/23 10:47:59;;;;;;;;;23.25;17.75;;;;;5.87;64.94;103401.28;5114318;27;49671;-66
2022/01/23 10:50:28;;;;;;;;;20.75;20.75;;;;;6.02;65.19;103433.84;5114516;27;49673;-66
2022/01/23 10:52:59;;;;;;;;;23.00;23.00;;;;;6.09;65.09;103422.25;5119205;27;49775;-68
2022/01/23 10:55:29;;;;;;;;;25.50;21.75;;;;;6.09;64.77;103416.13;5095481;27;49984;-67
2022/01/23 10:57:58;;;;;;;;;23.50;21.00;;;;;6.11;64.94;103412.84;5111695;27;49713;-68
2022/01/23 11:00:36;;;;;;;;;33.75;25.75;;;;;6.06;64.85;103406.31;5111445;27;50074;-67
2022/01/23 11:03:31;;;;;;;;;19.00;18.00;;;;;5.98;65.12;103386.53;5113753;27;50697;-66
2022/01/23 11:05:56;;;;;;;;;22.50;18.25;;;;;5.80;65.03;103345.94;5086925;27;49972;-75
2022/01/23 11:08:28;;;;;;;;;25.00;23.75;;;;;6.15;65.24;103404.47;5134189;27;49725;-71
2022/01/23 11:11:00;;;;;;;;;29.00;22.00;;;;;6.01;65.48;103381.59;5134097;27;49825;-73
2022/01/23 11:19:24;;;;;;;;;18.50;18.00;;;;;5.96;65.06;103381.19;5119074;27;50014;-65
2022/01/23 11:21:52;;;;;;;;;27.50;23.00;;;;;6.08;65.31;103389.13;5113165;27;49911;-66
2022/01/23 11:24:18;;;;;;;;;30.25;27.00;;;;;5.97;64.84;103362.16;5111732;27;51831;-64
2022/01/23 11:26:44;;;;;;;;;22.25;19.50;;;;;5.65;64.92;103302.19;5113566;27;49801;-65
2022/01/23 11:29:12;;;;;;;;;22.75;22.00;;;;;6.07;65.07;103376.84;5113886;27;49786;-65
2022/01/23 11:31:39;;;;;;;;;24.75;20.50;;;;;5.94;65.31;103350.56;5114376;27;49736;-66
2022/01/23 11:34:08;;;;;;;;;32.25;22.75;;;;;6.06;65.01;103376.72;5113266;27;50529;-64
2022/01/23 11:36:34;;;;;;;;;21.75;20.25;;;;;6.04;65.23;103366.19;5113573;27;49836;-66
2022/01/23 11:39:11;;;;;;;;;24.25;19.50;;;;;5.86;65.44;103331.66;5113307;27;49694;-65
2022/01/23 11:56:26;;;;;;;;;25.75;22.50;;;;;6.03;64.59;103367.88;5136690;27;49723;-63
2022/01/23 11:59:24;;;;;;;;;26.50;22.00;;;;;6.05;64.62;103356.66;5143973;27;49726;-61
2022/01/23 12:02:08;;;;;;;;;17.25;16.50;;;;;5.99;64.58;103357.09;5140609;27;49737;-62
2022/01/23 12:04:34;;;;;;;;;24.00;21.75;;;;;5.87;64.66;103336.09;5110199;27;49722;-62
2022/01/23 12:07:10;;;;;;;;;21.50;21.00;;;;;6.03;64.65;103356.53;5141559;27;50086;-65
2022/01/23 12:09:36;;;;;;;;;16.50;13.25;;;;;6.02;64.10;103334.75;5148088;27;49683;-75
2022/01/23 12:17:17;;;;;;;;;18.50;15.75;;;;;6.17;64.33;103335.06;5135058;27;50151;-66
2022/01/23 12:19:44;;;;;;;;;22.50;18.25;;;;;6.22;64.76;103348.50;5141540;27;49657;-67
2022/01/23 12:22:28;;;;;;;;;22.25;19.00;;;;;6.25;63.64;103333.97;5116389;27;50097;-69
2022/01/23 12:24:57;;;;;;;;;13.75;10.75;;;;;6.24;63.71;103320.81;5132716;27;50023;-72
2022/01/23 12:27:28;;;;;;;;;18.25;17.75;;;;;6.13;63.35;103313.84;5134692;27;49652;-72
2022/01/23 12:30:10;;;;;;;;;25.25;20.50;;;;;5.77;63.13;103254.44;5143866;27;49433;-79
2022/01/23 12:32:36;;;;;;;;;26.25;23.00;;;;;5.78;63.43;103249.34;5126500;27;49705;-72
2022/01/23 12:35:05;;;;;;;;;20.75;15.75;;;;;6.24;63.45;103339.06;5130540;27;49429;-74
2022/01/23 12:38:09;;;;;;;;;28.75;19.75;;;;;5.53;63.08;103194.38;5104772;27;51406;-80
2022/01/23 12:40:45;;;;;;;;;19.00;17.50;;;;;5.08;63.48;103137.78;5033960;28;49921;-73
2022/01/23 12:43:18;;;;;;;;;15.00;14.75;;;;;6.36;62.79;103313.03;5120009;27;49391;-71
2022/01/23 12:45:47;;;;;;;;;18.25;15.25;;;;;6.34;63.08;103301.59;5115106;27;49903;-71
2022/01/23 12:48:24;;;;;;;;;19.25;16.25;;;;;6.40;62.40;103304.69;5127592;27;50057;-76
2022/01/23 12:50:50;;;;;;;;;22.75;20.00;;;;;6.32;63.01;103283.22;5135037;27;49898;-77
2022/01/23 12:53:15;;;;;;;;;19.50;18.00;;;;;5.27;63.11;103123.66;5128238;27;49791;-76
2022/01/23 12:56:02;;;;;;;;;21.75;15.00;;;;;6.46;62.92;103289.47;5116180;27;49786;-75
2022/01/23 12:58:28;;;;;;;;;18.75;17.50;;;;;5.18;62.91;103101.28;5137387;27;50053;-76
2022/01/23 13:00:53;;;;;;;;;15.00;14.75;;;;;5.40;62.39;103114.34;5133093;27;49566;-75
2022/01/23 13:03:23;;;;;;;;;25.00;19.75;;;;;5.50;62.58;103110.75;5137222;27;49677;-74
2022/01/23 13:05:49;;;;;;;;;21.75;16.00;;;;;5.79;62.60;103153.78;5138982;27;49819;-72
2022/01/23 13:08:29;;;;;;;;;23.25;23.00;;;;;6.49;62.79;103277.59;5143897;27;49675;-75
2022/01/23 13:11:45;;;;;;;;;22.50;18.75;;;;;5.38;62.96;103099.34;5136405;27;49639;-77
2022/01/23 13:13:53;;;;;;;;;13.50;11.00;;;;;5.80;62.57;103155.66;5131035;27;50054;-71
2022/01/23 13:16:59;;;;;;;;;15.00;13.25;;;;;5.56;62.46;103107.72;5143903;27;49831;-73
2022/01/23 13:19:46;;;;;;;;;22.25;20.25;;;;;5.36;62.73;103044.53;5118302;27;49942;-75
2022/01/23 13:26:30;;;;;;;;;23.50;23.50;;;;;4.79;62.79;102955.88;5133204;27;49784;-78
2022/01/23 13:30:34;;;;;;;;;27.25;21.50;;;;;5.74;62.52;103127.38;5123967;27;49869;-76
2022/01/23 13:33:07;;;;;;;;;16.50;14.75;;;;;6.19;62.60;103182.22;5122385;27;50003;-80
2022/01/23 13:35:39;;;;;;;;;28.00;22.75;;;;;6.32;63.11;103181.47;5136639;27;49946;-74
2022/01/23 13:38:09;;;;;;;;;30.50;23.50;;;;;5.08;62.45;102981.56;5146886;27;49439;-69
2022/01/23 13:40:40;;;;;;;;;24.00;22.25;;;;;6.49;62.58;103190.59;5134619;27;49895;-76
2022/01/23 13:59:51;;;;;;;;;28.75;25.00;;;;;5.49;62.65;102995.97;5136242;27;49859;-78
2022/01/23 14:02:26;;;;;;;;;20.50;16.00;;;;;6.70;62.65;103206.94;5106068;27;52485;-72
2022/01/23 14:05:13;;;;;;;;;27.50;26.00;;;;;6.28;62.54;103132.47;5131648;27;49818;-71
2022/01/23 14:07:48;;;;;;;;;24.25;23.00;;;;;6.20;62.42;103118.84;5130906;27;49823;-74
2022/01/23 14:10:24;;;;;;;;;25.00;22.50;;;;;6.78;63.58;103206.75;5121963;27;49910;-75
2022/01/23 14:12:53;;;;;;;;;26.00;22.50;;;;;6.32;62.96;103131.91;5131713;27;51258;-68
2022/01/23 14:15:30;;;;;;;;;23.75;22.00;;;;;6.79;62.64;103203.34;5134526;27;49859;-78
2022/01/23 14:18:06;;;;;;;;;26.75;25.50;;;;;6.41;62.33;103124.75;5135154;27;49651;-82
2022/01/23 14:20:41;;;;;;;;;25.00;21.00;;;;;6.11;62.15;103079.03;5115916;27;49562;-76
2022/01/23 14:23:13;;;;;;;;;28.50;27.00;;;;;6.47;62.31;103142.59;5115885;27;52337;-78
2022/01/23 14:26:09;;;;;;;;;30.00;28.50;;;;;6.44;62.64;103171.03;5136422;27;50121;-83
2022/01/23 14:28:42;;;;;;;;;33.00;30.25;;;;;6.24;62.26;103122.56;5113747;27;49656;-76
2022/01/23 14:31:37;;;;;;;;;33.25;32.00;;;;;5.19;62.98;102935.53;5101315;27;49689;-75
2022/01/23 14:33:59;;;;;;;;;28.25;24.75;;;;;5.01;62.52;102901.19;5113673;27;50402;-73
2022/01/23 14:36:27;;;;;;;;;38.25;30.50;;;;;6.00;62.53;103095.56;5127734;27;49811;-76
2022/01/23 14:38:54;;;;;;;;;27.00;25.25;;;;;6.69;62.80;103172.09;5143484;27;49792;-76
2022/01/23 14:41:35;;;;;;;;;44.25;34.25;;;;;6.29;62.51;103106.50;5116228;27;49943;-79
2022/01/23 14:44:05;;;;;;;;;44.50;35.00;;;;;5.09;62.52;102910.50;5125090;27;49690;-76
2022/01/23 14:46:31;;;;;;;;;36.00;31.25;;;;;5.01;62.10;102898.56;5112794;27;49734;-73
2022/01/23 14:49:01;;;;;;;;;39.75;33.75;;;;;6.54;62.31;103152.69;5137671;27;49697;-74